Des Moines (DSM/KDSM)

Map

Destinations

Information

Location
Des Moines, IA
Local Time
21:24 / 9:24 pm
GMT Time
02:24 / 2:24 am
Gates
Unassigned
No FAA reported delays
METAR KDSM 280154Z 01007KT 10SM OVC023 09/04 A2999 RMK AO2 SLP157 T00940044
TAF KDSM 272335Z 2800/2824 03004KT P6SM BKN020 FM281500 08009KT P6SM BKN030
  • No charts available